Corozal, Belize
Current Conditions -  °F | °C
As of 7:40 PM on Monday 24 Nov 2014 (Local Time) from MMCM Reporting Station
Few Clouds Few Clouds  
Wind Chill: 28°   Ceiling: Unl
Heat Index: 33°   Visibility: 7mi
Dew Point: 25°   Wind: 0mph
Humidity: 84%   Direction: NA
Pressure: 29.88"   Gusts: NA
Location:  18.4°N, 88.39°W
Report Text: MMCM 250140Z 00000KT 7SM FEW020 28/25 A2988 RMK 8/100 RTS
Loading
Personal Weather Stations






























Interactive Weather Map New forecast layout! Learn more

10-Day Weather Forecast

Advertisements
Track Severe Weather on mobile